Time;durP1;ratioP1;P1;durP2;ratioP2;P2;SDS_P1;SDS_P2;PMS_P1;PMS_P2;Temp;Humidity;BMP_temperature;BMP_pressure;BME280_temperature;BME280_humidity;BME280_pressure;Samples;Min_cycle;Max_cycle;Signal;HPM_P1;HPM_P2
2022/12/28 00:02:23;;;;;;;10.60;4.50;;;;;;;1.74;92.95;99582.38;213757;1312;24481;-75
2022/12/28 00:07:25;;;;;;;8.70;4.00;;;;;;;1.75;92.96;99578.42;213877;1312;22461;-75
2022/12/28 00:12:31;;;;;;;10.00;4.90;;;;;;;1.73;92.89;99574.45;213891;1307;22515;-74
2022/12/28 00:17:33;;;;;;;11.10;4.30;;;;;;;1.62;92.69;99569.77;213823;1312;22497;-75
2022/12/28 00:22:35;;;;;;;14.10;5.20;;;;;;;1.49;92.74;99568.18;213800;1290;25440;-75
2022/12/28 00:27:37;;;;;;;14.00;4.70;;;;;;;1.36;92.80;99566.10;213920;1312;23180;-75
2022/12/28 00:32:39;;;;;;;13.20;4.90;;;;;;;1.20;92.93;99558.69;213931;1281;22631;-74
2022/12/28 00:37:40;;;;;;;15.20;5.80;;;;;;;1.08;93.18;99561.60;213893;1311;25233;-74
2022/12/28 00:42:42;;;;;;;14.30;6.00;;;;;;;0.96;93.17;99560.56;213519;1290;22483;-75
2022/12/28 00:47:44;;;;;;;15.10;5.70;;;;;;;0.84;93.12;99563.02;213845;1312;22487;-74
2022/12/28 00:52:45;;;;;;;14.90;5.60;;;;;;;0.72;93.41;99568.31;213813;1312;25273;-75
2022/12/28 00:57:47;;;;;;;16.20;6.50;;;;;;;0.60;93.19;99564.61;213719;1312;22499;-74
2022/12/28 01:02:49;;;;;;;14.80;6.60;;;;;;;0.48;93.49;99570.22;213654;1312;25218;-75
2022/12/28 01:07:52;;;;;;;16.70;6.30;;;;;;;0.38;93.53;99569.23;213902;1311;23361;-74
2022/12/28 01:12:54;;;;;;;16.60;7.40;;;;;;;0.31;93.88;99574.23;213517;1312;22535;-75
2022/12/28 01:17:56;;;;;;;18.40;8.80;;;;;;;0.25;93.99;99572.96;213853;1312;22970;-74
2022/12/28 01:22:57;;;;;;;28.30;12.40;;;;;;;0.19;94.12;99573.13;213674;1298;24309;-75
2022/12/28 01:27:59;;;;;;;28.60;13.40;;;;;;;0.11;94.22;99568.28;213721;1283;24513;-74
2022/12/28 01:33:01;;;;;;;21.50;10.20;;;;;;;0.01;94.18;99568.55;213719;1312;25466;-75
2022/12/28 01:38:03;;;;;;;26.00;11.50;;;;;;;-0.11;94.40;99567.37;213933;1298;22429;-75
2022/12/28 01:43:12;;;;;;;19.60;9.40;;;;;;;-0.23;94.67;99561.23;213746;1312;25266;-75
2022/12/28 01:48:31;;;;;;;22.40;10.00;;;;;;;-0.30;94.76;99556.11;213656;1312;24370;-75
2022/12/28 01:53:33;;;;;;;28.20;13.10;;;;;;;-0.39;94.75;99548.71;213838;1311;22508;-74
2022/12/28 01:58:35;;;;;;;33.80;16.50;;;;;;;-0.47;94.71;99540.82;213775;1312;22736;-74
2022/12/28 02:03:37;;;;;;;39.50;17.20;;;;;;;-0.53;95.19;99535.25;213788;1297;22610;-75
2022/12/28 02:08:48;;;;;;;39.80;19.20;;;;;;;-0.58;95.22;99535.39;213673;1312;24341;-74
2022/12/28 02:13:51;;;;;;;37.50;17.40;;;;;;;-0.66;95.39;99531.88;213795;1290;24117;-74
2022/12/28 02:18:54;;;;;;;43.00;19.60;;;;;;;-0.76;95.30;99512.56;213657;1312;22543;-74
2022/12/28 02:23:56;;;;;;;25.00;12.20;;;;;;;-0.82;95.49;99494.45;213709;1288;24309;-74
2022/12/28 02:29:07;;;;;;;31.40;14.40;;;;;;;-0.90;95.69;99493.48;213762;1298;22631;-74
2022/12/28 02:34:24;;;;;;;29.20;14.70;;;;;;;-0.95;95.99;99498.15;213642;1312;22704;-75
2022/12/28 02:39:33;;;;;;;25.20;13.00;;;;;;;-1.00;95.90;99489.30;213673;1312;24283;-75
2022/12/28 02:50:05;;;;;;;30.00;14.20;;;;;;;-1.08;96.04;99478.42;213883;1312;24296;-75
2022/12/28 03:00:57;;;;;;;21.50;10.90;;;;;;;-1.14;96.47;99471.89;213699;1312;25421;-74
2022/12/28 03:11:52;;;;;;;18.70;10.10;;;;;;;-1.14;97.01;99466.71;213711;1312;25328;-74
2022/12/28 03:33:08;;;;;;;12.70;7.60;;;;;;;-0.92;97.91;99453.37;213582;1313;25272;-74
2022/12/28 03:38:26;;;;;;;12.30;7.10;;;;;;;-0.86;97.74;99447.39;213562;1312;22474;-74
2022/12/28 03:43:40;;;;;;;12.70;6.80;;;;;;;-0.83;97.67;99438.42;213827;1312;22942;-75
2022/12/28 03:48:46;;;;;;;11.10;5.10;;;;;;;-0.81;97.88;99433.55;213830;1307;22526;-74
2022/12/28 03:53:48;;;;;;;9.70;5.10;;;;;;;-0.76;97.96;99427.65;213667;1291;24342;-74
2022/12/28 03:58:53;;;;;;;11.40;5.20;;;;;;;-0.64;98.21;99417.27;213452;1313;22594;-74
2022/12/28 04:03:55;;;;;;;10.80;5.00;;;;;;;-0.54;98.28;99410.69;213888;1305;22503;-75
2022/12/28 04:09:02;;;;;;;11.40;6.00;;;;;;;-0.46;98.32;99400.46;213638;1312;24093;-75
2022/12/28 04:14:06;;;;;;;7.80;4.70;;;;;;;-0.37;98.39;99399.70;213673;1312;24403;-74
2022/12/28 04:19:12;;;;;;;11.10;4.80;;;;;;;-0.29;98.22;99395.95;213670;1312;24082;-75
2022/12/28 04:24:14;;;;;;;9.20;4.50;;;;;;;-0.24;97.93;99397.91;213870;1312;23898;-75
2022/12/28 04:29:16;;;;;;;8.30;3.80;;;;;;;-0.18;97.88;99395.24;213617;1312;22923;-75
2022/12/28 04:34:28;;;;;;;9.40;3.80;;;;;;;-0.12;97.92;99381.69;213672;1312;22608;-74
2022/12/28 04:39:36;;;;;;;9.70;5.20;;;;;;;-0.10;97.53;99378.80;213512;1312;24527;-74
2022/12/28 04:44:57;;;;;;;14.50;5.80;;;;;;;-0.11;96.88;99377.82;213827;1312;22610;-75
2022/12/28 04:49:59;;;;;;;10.40;5.30;;;;;;;-0.12;97.11;99367.66;213839;1305;22484;-75
2022/12/28 04:55:01;;;;;;;10.60;5.00;;;;;;;-0.13;96.80;99362.27;213652;1312;24858;-76
2022/12/28 05:00:03;;;;;;;8.60;4.10;;;;;;;-0.12;96.92;99363.66;213730;1288;25336;-74
2022/12/28 05:05:05;;;;;;;7.30;3.70;;;;;;;-0.11;97.04;99354.20;213779;1312;22736;-75
2022/12/28 05:10:07;;;;;;;6.90;2.90;;;;;;;-0.11;96.54;99350.31;213756;1312;25517;-75
2022/12/28 05:15:10;;;;;;;7.40;3.40;;;;;;;-0.13;96.49;99344.36;213741;1312;24292;-74
2022/12/28 05:20:12;;;;;;;8.20;3.80;;;;;;;-0.14;96.41;99343.73;213888;1312;22614;-74
2022/12/28 05:25:14;;;;;;;11.10;5.20;;;;;;;-0.19;96.32;99346.14;213556;1313;22966;-75
2022/12/28 05:30:16;;;;;;;11.00;6.10;;;;;;;-0.22;96.44;99339.11;213706;1290;22466;-75
2022/12/28 05:35:18;;;;;;;13.40;5.40;;;;;;;-0.26;96.32;99329.22;213729;1313;22494;-75
2022/12/28 05:40:20;;;;;;;13.10;6.00;;;;;;;-0.30;96.50;99327.48;213676;1297;25666;-74
2022/12/28 05:45:21;;;;;;;9.80;4.20;;;;;;;-0.29;96.62;99321.61;213695;1312;22537;-75
2022/12/28 05:50:23;;;;;;;11.40;5.10;;;;;;;-0.24;96.81;99316.37;213364;1310;22547;-75
2022/12/28 05:55:26;;;;;;;13.60;5.10;;;;;;;-0.21;96.50;99315.64;213586;1312;22516;-75
2022/12/28 06:00:27;;;;;;;7.70;5.00;;;;;;;-0.21;96.54;99316.33;213777;1311;23347;-74
2022/12/28 06:05:29;;;;;;;10.40;4.60;;;;;;;-0.20;96.38;99314.77;213812;1312;25323;-75
2022/12/28 06:10:31;;;;;;;12.80;4.80;;;;;;;-0.18;96.64;99309.35;213774;1312;24357;-73
2022/12/28 06:15:33;;;;;;;8.90;4.10;;;;;;;-0.16;96.33;99302.52;213609;1313;25234;-74
2022/12/28 06:20:34;;;;;;;9.30;4.30;;;;;;;-0.13;96.42;99296.27;213699;1307;22676;-76
2022/12/28 06:25:37;;;;;;;9.30;4.40;;;;;;;-0.10;96.32;99295.70;213745;1313;22649;-76
2022/12/28 06:30:39;;;;;;;11.30;4.60;;;;;;;-0.08;96.53;99291.08;213515;1296;25301;-74
2022/12/28 06:35:40;;;;;;;8.00;4.40;;;;;;;-0.04;96.32;99287.58;213900;1312;24382;-75
2022/12/28 06:40:42;;;;;;;7.60;3.90;;;;;;;0.03;96.55;99282.01;213626;1312;22536;-75
2022/12/28 06:46:05;;;;;;;7.30;3.70;;;;;;;0.12;96.45;99276.39;213618;1313;22551;-74
2022/12/28 06:51:11;;;;;;;4.70;2.80;;;;;;;0.23;96.23;99278.59;214154;1288;25127;-73
2022/12/28 06:56:16;;;;;;;5.60;2.80;;;;;;;0.43;96.39;99286.83;214008;1291;22477;-74
2022/12/28 07:01:21;;;;;;;5.30;3.10;;;;;;;0.61;96.11;99282.96;214184;1287;22499;-74
2022/12/28 07:06:25;;;;;;;6.80;3.20;;;;;;;0.77;95.57;99283.83;214117;1281;22477;-74
2022/12/28 07:11:28;;;;;;;5.60;2.60;;;;;;;0.94;94.95;99281.12;214990;1280;26662;-74
2022/12/28 07:16:30;;;;;;;5.20;2.40;;;;;;;1.09;94.82;99277.41;214306;1281;139036;-73
2022/12/28 07:21:33;;;;;;;6.00;2.40;;;;;;;1.19;94.51;99275.02;214303;1286;22609;-75
2022/12/28 07:26:36;;;;;;;4.80;2.90;;;;;;;1.28;93.96;99277.64;214222;1280;138559;-73
2022/12/28 07:31:39;;;;;;;5.90;2.40;;;;;;;1.34;93.73;99281.05;213839;1280;138281;-74
2022/12/28 07:36:47;;;;;;;8.20;3.00;;;;;;;1.37;93.47;99279.31;214018;1280;138364;-74
2022/12/28 07:41:49;;;;;;;9.00;3.10;;;;;;;1.41;93.17;99280.47;214114;1280;138559;-77
2022/12/28 07:46:55;;;;;;;7.00;3.00;;;;;;;1.44;92.92;99281.38;214079;1283;138309;-73
2022/12/28 07:51:57;;;;;;;8.10;3.10;;;;;;;1.48;92.87;99271.72;214240;1288;23128;-75
2022/12/28 07:56:58;;;;;;;6.70;3.30;;;;;;;1.55;92.28;99269.42;214261;1280;138145;-75
2022/12/28 08:02:00;;;;;;;7.10;3.30;;;;;;;1.64;92.45;99272.02;213883;1288;138283;-73
2022/12/28 08:07:02;;;;;;;9.00;2.90;;;;;;;1.74;92.16;99274.73;213966;1287;138831;-75
2022/12/28 08:12:04;;;;;;;6.60;2.50;;;;;;;1.86;92.04;99268.68;214164;1281;138520;-76
2022/12/28 08:17:06;;;;;;;6.50;3.10;;;;;;;1.99;91.69;99273.71;213901;1293;138631;-76
2022/12/28 08:22:07;;;;;;;6.90;3.00;;;;;;;2.15;91.73;99277.90;214178;1284;25300;-76
2022/12/28 08:27:09;;;;;;;8.20;3.10;;;;;;;2.29;91.44;99270.98;213980;1288;137857;-76
2022/12/28 08:32:11;;;;;;;4.00;2.40;;;;;;;2.44;91.15;99264.05;214159;1290;138771;-74
2022/12/28 08:37:13;;;;;;;4.40;2.40;;;;;;;2.52;89.65;99264.59;214031;1300;138469;-74
2022/12/28 08:42:15;;;;;;;8.50;3.80;;;;;;;2.57;89.86;99263.12;213924;1312;138329;-76
2022/12/28 08:47:17;;;;;;;5.50;2.60;;;;;;;2.61;89.85;99262.54;213792;1288;138661;-76
2022/12/28 08:52:18;;;;;;;8.50;4.20;;;;;;;2.65;89.46;99264.88;213955;1286;138715;-76
2022/12/28 08:57:20;;;;;;;8.30;3.70;;;;;;;2.69;89.24;99266.58;213755;1292;22721;-77
2022/12/28 09:02:22;;;;;;;7.10;3.20;;;;;;;2.73;88.83;99278.84;214127;1280;137973;-76
2022/12/28 09:07:24;;;;;;;10.20;3.60;;;;;;;2.76;88.78;99272.86;214040;1289;138605;-76
2022/12/28 09:12:26;;;;;;;10.70;3.50;;;;;;;2.79;88.68;99267.46;213908;1288;138616;-77
2022/12/28 09:17:28;;;;;;;8.10;3.70;;;;;;;2.80;88.45;99267.52;214047;1288;138795;-75
2022/12/28 09:22:30;;;;;;;9.00;4.10;;;;;;;2.80;88.79;99263.90;213948;1288;138506;-76
2022/12/28 09:27:32;;;;;;;10.90;5.00;;;;;;;2.83;88.90;99256.94;214059;1297;22558;-76
2022/12/28 09:32:34;;;;;;;9.40;5.10;;;;;;;2.88;89.00;99257.43;213942;1284;138623;-77
2022/12/28 09:37:35;;;;;;;13.00;6.10;;;;;;;2.95;88.97;99256.37;214023;1312;138611;-76
2022/12/28 09:42:41;;;;;;;12.70;5.30;;;;;;;2.94;88.33;99255.80;213805;1289;138531;-77
2022/12/28 09:47:50;;;;;;;14.80;5.90;;;;;;;2.91;87.78;99251.05;213917;1287;138601;-76
2022/12/28 09:53:02;;;;;;;9.50;4.90;;;;;;;2.90;87.89;99253.73;214090;1281;138549;-78
2022/12/28 09:58:09;;;;;;;11.10;5.20;;;;;;;2.93;88.04;99248.61;214174;1288;24535;-76
2022/12/28 10:03:22;;;;;;;14.40;6.60;;;;;;;2.96;87.90;99245.23;213516;1285;138808;-77
2022/12/28 10:08:26;;;;;;;11.40;5.50;;;;;;;2.97;87.89;99238.65;214204;1303;138495;-77
2022/12/28 10:13:36;;;;;;;10.80;6.50;;;;;;;3.03;88.07;99228.20;213841;1296;138722;-76
2022/12/28 10:18:56;;;;;;;12.70;6.60;;;;;;;3.12;88.31;99216.04;213859;1290;138614;-77
2022/12/28 10:23:58;;;;;;;8.50;4.30;;;;;;;3.25;88.64;99188.43;213768;1312;138618;-77
2022/12/28 10:29:22;;;;;;;7.70;3.70;;;;;;;3.39;88.01;99172.80;213982;1310;138979;-76
2022/12/28 10:34:24;;;;;;;11.60;4.40;;;;;;;3.53;86.61;99170.96;213966;1312;139661;-76
2022/12/28 10:39:30;;;;;;;6.10;4.10;;;;;;;3.67;86.21;99155.91;214278;1288;25262;-77
2022/12/28 10:44:34;;;;;;;7.50;3.80;;;;;;;3.80;86.31;99150.77;213876;1287;139786;-78
2022/12/28 10:49:48;;;;;;;9.70;3.60;;;;;;;4.03;85.74;99144.91;213808;1302;138507;-76
2022/12/28 10:55:31;;;;;;;9.60;3.90;;;;;;;4.21;84.35;99147.15;214317;1290;138351;-76
2022/12/28 11:00:34;;;;;;;10.50;4.60;;;;;;;4.34;84.25;99133.80;213974;1289;137585;-78
2022/12/28 11:05:36;;;;;;;8.30;4.50;;;;;;;4.51;83.67;99116.53;214155;1290;138651;-76
2022/12/28 11:10:39;;;;;;;8.00;4.20;;;;;;;4.76;83.19;99105.57;214192;1288;138438;-76
2022/12/28 11:15:43;;;;;;;9.90;3.60;;;;;;;5.05;83.04;99098.52;214170;1291;22482;-77
2022/12/28 11:20:52;;;;;;;5.70;2.90;;;;;;;5.37;81.78;99081.20;214063;1281;138199;-76
2022/12/28 11:25:54;;;;;;;4.80;2.00;;;;;;;5.69;78.95;99075.69;214948;1286;138274;-77
2022/12/28 11:30:56;;;;;;;4.30;2.40;;;;;;;5.89;76.30;99067.02;214655;1288;138446;-76
2022/12/28 11:35:59;;;;;;;5.30;2.40;;;;;;;6.01;75.40;99072.77;214239;1287;138441;-77
2022/12/28 11:41:34;;;;;;;6.00;2.00;;;;;;;6.08;75.09;99070.38;214179;1312;138404;-75
2022/12/28 11:46:39;;;;;;;4.50;2.30;;;;;;;6.09;73.47;99070.45;215135;1280;138439;-76
2022/12/28 11:51:40;;;;;;;6.00;2.40;;;;;;;6.01;72.21;99063.36;214165;1287;22555;-76
2022/12/28 11:56:42;;;;;;;5.90;2.60;;;;;;;5.91;72.80;99051.84;214255;1286;137373;-76
2022/12/28 12:01:45;;;;;;;5.00;2.60;;;;;;;5.73;73.04;99046.33;214193;1280;138017;-76
2022/12/28 12:06:47;;;;;;;8.10;2.90;;;;;;;5.52;73.70;99047.52;214636;1288;137661;-75
2022/12/28 12:12:02;;;;;;;5.60;2.30;;;;;;;5.34;73.79;99040.36;214450;1287;138601;-76
2022/12/28 12:17:12;;;;;;;4.60;2.60;;;;;;;5.21;73.92;99026.27;214089;1294;138748;-77
2022/12/28 12:22:23;;;;;;;4.10;2.50;;;;;;;5.15;74.46;99024.35;214310;1291;22514;-76
2022/12/28 12:27:35;;;;;;;6.10;2.90;;;;;;;5.11;74.15;99026.20;214325;1304;25536;-76
2022/12/28 12:33:01;;;;;;;7.70;3.20;;;;;;;5.05;75.01;99015.39;213970;1288;138784;-76
2022/12/28 12:38:12;;;;;;;8.70;4.00;;;;;;;5.01;75.45;99011.05;214156;1290;138294;-80
2022/12/28 12:43:39;;;;;;;6.70;3.80;;;;;;;5.02;76.03;99011.00;214247;1287;138520;-78
2022/12/28 12:49:20;;;;;;;7.70;3.80;;;;;;;5.00;76.16;98994.52;214199;1289;138342;-77
2022/12/28 12:54:40;;;;;;;7.40;3.40;;;;;;;4.97;77.08;98978.71;214175;1287;138516;-77
2022/12/28 13:00:09;;;;;;;9.70;4.10;;;;;;;4.94;77.00;98971.41;214172;1287;138877;-75
2022/12/28 13:05:30;;;;;;;8.90;3.80;;;;;;;4.98;77.36;98954.24;214211;1287;140719;-77
2022/12/28 13:10:35;;;;;;;7.20;3.10;;;;;;;5.16;77.13;98947.23;214233;1294;140192;-76
2022/12/28 13:15:36;;;;;;;6.70;2.90;;;;;;;5.22;76.97;98938.64;214579;1287;22481;-75
2022/12/28 13:20:38;;;;;;;8.80;3.00;;;;;;;5.16;76.46;98933.42;214189;1287;138525;-76
2022/12/28 13:25:45;;;;;;;4.60;2.50;;;;;;;5.09;76.67;98931.44;214141;1287;138585;-76
2022/12/28 13:31:05;;;;;;;4.00;2.40;;;;;;;5.01;76.29;98934.00;214081;1287;138430;-76
2022/12/28 13:36:12;;;;;;;2.50;2.20;;;;;;;4.95;76.48;98934.77;214076;1294;138714;-78
2022/12/28 13:41:25;;;;;;;5.60;2.90;;;;;;;4.92;76.46;98943.81;214454;1287;138915;-76
2022/12/28 13:46:28;;;;;;;6.30;2.30;;;;;;;4.95;76.54;98941.88;214373;1287;138932;-76
2022/12/28 13:51:37;;;;;;;5.70;3.10;;;;;;;4.96;76.33;98942.55;215439;1288;25229;-75
2022/12/28 13:56:41;;;;;;;21.80;11.10;;;;;;;4.91;76.79;98941.41;214511;1286;138118;-75
2022/12/28 14:01:48;;;;;;;9.90;4.60;;;;;;;4.94;77.41;98943.46;214217;1287;139222;-77
2022/12/28 14:06:50;;;;;;;15.40;8.20;;;;;;;4.96;77.44;98933.67;214146;1288;139127;-78
2022/12/28 14:11:52;;;;;;;7.30;3.70;;;;;;;4.85;77.80;98933.34;214507;1287;139216;-78
2022/12/28 14:16:54;;;;;;;7.40;3.70;;;;;;;4.63;77.34;98923.80;214866;1287;138488;-76
2022/12/28 14:21:56;;;;;;;8.10;3.60;;;;;;;4.38;77.83;98924.05;214587;1288;22484;-78
2022/12/28 14:27:11;;;;;;;5.10;3.50;;;;;;;4.15;78.92;98929.30;214533;1282;138569;-76
2022/12/28 14:32:15;;;;;;;8.50;4.30;;;;;;;3.99;79.73;98925.39;214726;1284;138778;-76
2022/12/28 14:37:32;;;;;;;10.60;5.20;;;;;;;3.88;80.20;98928.86;214864;1287;139049;-76
2022/12/28 14:42:34;;;;;;;8.10;4.30;;;;;;;3.80;80.47;98923.96;214724;1287;139386;-76
2022/12/28 14:47:45;;;;;;;11.10;5.00;;;;;;;3.70;80.88;98906.53;214524;1287;139016;-76
2022/12/28 14:52:49;;;;;;;7.00;4.00;;;;;;;3.61;81.36;98905.12;214505;1281;138557;-74
2022/12/28 14:57:59;;;;;;;9.70;4.80;;;;;;;3.51;81.56;98894.30;213978;1288;22477;-74
2022/12/28 15:03:19;;;;;;;6.80;3.50;;;;;;;3.46;81.92;98882.92;214082;1298;22490;-75
2022/12/28 15:08:24;;;;;;;14.00;7.60;;;;;;;3.54;82.91;98886.93;213794;1287;22519;-74
2022/12/28 15:13:26;;;;;;;17.10;5.90;;;;;;;3.76;82.81;98879.81;213667;1312;22507;-75
2022/12/28 15:18:29;;;;;;;8.40;4.30;;;;;;;3.78;81.89;98870.89;213649;1312;22479;-75
2022/12/28 15:23:31;;;;;;;7.10;3.50;;;;;;;3.73;82.19;98874.05;213838;1312;22482;-75
2022/12/28 15:28:34;;;;;;;7.20;3.40;;;;;;;3.67;82.10;98870.30;213512;1312;22476;-76
2022/12/28 15:33:36;;;;;;;7.20;3.70;;;;;;;3.65;82.29;98862.36;213707;1312;22465;-75
2022/12/28 15:38:38;;;;;;;10.20;3.80;;;;;;;3.62;82.42;98863.28;213733;1288;22485;-75
2022/12/28 15:43:40;;;;;;;25.50;10.80;;;;;;;3.62;82.26;98862.38;213656;1307;23093;-75
2022/12/28 15:48:41;;;;;;;17.20;7.80;;;;;;;3.65;82.82;98858.45;213659;1312;22886;-75
2022/12/28 15:53:49;;;;;;;15.50;6.70;;;;;;;3.65;82.78;98856.52;213697;1312;24348;-75
2022/12/28 15:58:55;;;;;;;10.40;5.00;;;;;;;3.66;82.82;98854.33;213429;1312;22611;-75
2022/12/28 16:03:59;;;;;;;8.10;3.80;;;;;;;3.64;82.48;98854.76;213729;1312;22504;-75
2022/12/28 16:09:02;;;;;;;6.00;3.50;;;;;;;3.56;82.41;98843.11;213977;1312;24423;-75
2022/12/28 16:14:05;;;;;;;6.00;3.50;;;;;;;3.53;82.38;98840.40;213903;1312;24429;-75
2022/12/28 16:19:08;;;;;;;5.80;2.60;;;;;;;3.48;82.56;98840.95;213841;1312;22675;-77
2022/12/28 16:24:11;;;;;;;6.80;3.40;;;;;;;3.47;82.65;98824.58;213996;1312;24125;-75
2022/12/28 16:29:12;;;;;;;7.10;3.80;;;;;;;3.51;82.74;98823.85;213608;1312;22559;-74
2022/12/28 16:34:16;;;;;;;6.30;3.20;;;;;;;3.52;82.43;98820.63;213830;1312;23758;-75
2022/12/28 16:39:18;;;;;;;5.20;2.90;;;;;;;3.55;82.41;98823.74;213738;1312;25349;-76
2022/12/28 16:44:24;;;;;;;7.20;3.00;;;;;;;3.56;82.66;98824.19;213782;1307;24283;-75
2022/12/28 16:49:26;;;;;;;7.50;3.60;;;;;;;3.55;82.64;98813.15;213751;1312;22610;-75
2022/12/28 16:54:28;;;;;;;5.40;3.20;;;;;;;3.55;82.71;98823.59;213595;1312;25388;-75
2022/12/28 16:59:30;;;;;;;6.20;2.80;;;;;;;3.55;82.76;98823.10;213630;1312;24337;-76
2022/12/28 17:04:32;;;;;;;7.30;3.20;;;;;;;3.54;82.78;98825.64;213771;1312;24283;-75
2022/12/28 17:09:34;;;;;;;7.10;3.60;;;;;;;3.52;82.72;98825.27;213807;1305;24340;-74
2022/12/28 17:14:36;;;;;;;6.50;2.80;;;;;;;3.50;82.83;98829.98;213555;1307;22495;-75
2022/12/28 17:19:39;;;;;;;5.60;2.80;;;;;;;3.48;83.04;98830.14;213818;1312;25689;-75
2022/12/28 17:24:40;;;;;;;6.10;3.20;;;;;;;3.46;83.08;98827.30;213615;1312;22502;-75
2022/12/28 17:29:42;;;;;;;9.30;3.20;;;;;;;3.43;83.15;98829.73;213792;1312;22630;-76
2022/12/28 17:34:44;;;;;;;6.70;3.10;;;;;;;3.40;83.06;98827.95;213721;1312;22491;-75
2022/12/28 17:39:46;;;;;;;6.50;3.20;;;;;;;3.39;83.33;98824.98;213676;1312;25467;-75
2022/12/28 17:44:48;;;;;;;7.30;2.80;;;;;;;3.40;83.55;98831.39;213461;1312;24487;-75
2022/12/28 17:49:50;;;;;;;5.90;2.70;;;;;;;3.45;83.35;98823.63;213882;1312;25353;-75
2022/12/28 17:54:52;;;;;;;5.70;3.10;;;;;;;3.47;82.99;98823.24;213676;1312;22539;-76
2022/12/28 17:59:54;;;;;;;7.80;2.80;;;;;;;3.48;82.81;98823.68;213884;1312;22599;-75
2022/12/28 18:04:55;;;;;;;4.70;2.90;;;;;;;3.48;83.07;98821.02;213646;1312;24131;-75
2022/12/28 18:09:57;;;;;;;6.50;3.10;;;;;;;3.46;82.83;98821.89;213758;1312;24274;-75
2022/12/28 18:14:59;;;;;;;7.80;2.80;;;;;;;3.45;82.54;98821.41;213828;1312;22482;-75
2022/12/28 18:20:00;;;;;;;7.60;3.20;;;;;;;3.47;82.57;98820.23;213779;1312;22967;-76
2022/12/28 18:25:03;;;;;;;6.10;3.00;;;;;;;3.50;82.33;98824.09;213917;1312;22478;-76
2022/12/28 18:30:05;;;;;;;7.10;3.10;;;;;;;3.56;82.59;98822.34;213853;1312;22549;-75
2022/12/28 18:35:08;;;;;;;8.70;3.50;;;;;;;3.63;82.18;98820.17;213739;1312;22518;-74
2022/12/28 18:40:12;;;;;;;5.70;3.00;;;;;;;3.72;81.72;98818.86;213624;1312;23206;-75
2022/12/28 18:45:14;;;;;;;5.90;2.90;;;;;;;3.75;82.05;98820.55;213656;1312;22454;-75
2022/12/28 18:50:16;;;;;;;7.00;3.10;;;;;;;3.80;81.78;98819.40;213805;1312;22487;-75
2022/12/28 18:55:20;;;;;;;5.70;3.40;;;;;;;3.80;81.80;98818.13;213776;1312;22483;-75
2022/12/28 19:00:21;;;;;;;8.20;3.30;;;;;;;3.77;81.72;98825.73;213763;1312;22509;-74
2022/12/28 19:05:23;;;;;;;9.70;4.80;;;;;;;3.74;81.64;98820.52;213719;1312;22476;-76
2022/12/28 19:10:25;;;;;;;8.50;3.20;;;;;;;3.66;82.00;98813.84;213787;1306;22478;-75
2022/12/28 19:15:28;;;;;;;7.80;3.50;;;;;;;3.59;82.01;98812.30;213703;1312;22456;-75
2022/12/28 19:20:31;;;;;;;7.50;3.50;;;;;;;3.54;82.11;98813.61;213509;1312;24322;-75
2022/12/28 19:25:33;;;;;;;9.00;4.40;;;;;;;3.47;82.56;98805.36;213591;1312;22520;-75
2022/12/28 19:30:34;;;;;;;8.40;3.50;;;;;;;3.39;82.70;98809.70;213632;1312;25283;-75
2022/12/28 19:35:36;;;;;;;6.30;3.10;;;;;;;3.29;82.85;98808.06;213861;1312;22471;-75
2022/12/28 19:40:38;;;;;;;6.80;3.40;;;;;;;3.19;82.92;98797.63;213738;1312;25360;-75
2022/12/28 19:45:39;;;;;;;5.60;3.40;;;;;;;3.14;83.05;98802.84;213774;1312;24354;-75
2022/12/28 19:50:41;;;;;;;5.90;3.20;;;;;;;3.10;83.34;98803.72;213812;1312;22486;-76
2022/12/28 19:55:43;;;;;;;6.90;3.30;;;;;;;3.04;83.03;98801.77;213731;1312;22502;-75
2022/12/28 20:00:45;;;;;;;9.90;4.70;;;;;;;3.00;83.33;98791.44;213672;1312;24082;-76
2022/12/28 20:05:47;;;;;;;13.90;5.60;;;;;;;2.92;83.26;98781.17;213394;1312;24233;-73
2022/12/28 20:10:55;;;;;;;11.90;5.70;;;;;;;2.83;83.36;98773.14;213822;1312;24901;-75
2022/12/28 20:15:57;;;;;;;13.60;5.30;;;;;;;2.76;83.56;98771.70;213960;1312;24292;-76
2022/12/28 20:21:05;;;;;;;10.50;5.10;;;;;;;2.72;83.65;98772.85;213656;1312;25280;-75
2022/12/28 20:26:23;;;;;;;13.50;5.00;;;;;;;2.73;83.61;98764.55;213770;1312;22529;-76
2022/12/28 20:31:27;;;;;;;12.40;4.50;;;;;;;2.77;83.64;98762.65;213709;1312;25382;-75
2022/12/28 20:36:32;;;;;;;11.40;4.60;;;;;;;2.81;83.75;98757.76;213843;1312;24262;-75
2022/12/28 20:46:56;;;;;;;12.40;5.90;;;;;;;2.88;83.75;98755.92;213824;1311;22485;-75
2022/12/28 20:51:58;;;;;;;12.80;5.60;;;;;;;2.91;83.77;98751.70;213927;1312;25375;-74
2022/12/28 20:56:59;;;;;;;12.80;5.40;;;;;;;2.91;83.85;98746.61;213819;1312;22509;-74
2022/12/28 21:02:01;;;;;;;12.40;5.70;;;;;;;2.89;83.57;98734.95;213611;1312;26387;-76
2022/12/28 21:07:04;;;;;;;14.50;5.30;;;;;;;2.84;83.86;98730.66;214144;1312;25272;-74
2022/12/28 21:12:06;;;;;;;15.80;5.60;;;;;;;2.77;83.81;98729.40;213547;1312;22522;-75
2022/12/28 21:17:09;;;;;;;10.70;5.70;;;;;;;2.72;83.76;98730.08;213868;1312;24285;-75
2022/12/28 21:22:12;;;;;;;12.80;5.70;;;;;;;2.66;83.78;98720.67;213745;1312;22481;-75
2022/12/28 21:27:14;;;;;;;14.10;5.30;;;;;;;2.63;83.82;98719.25;213805;1312;22605;-75
2022/12/28 21:32:16;;;;;;;13.90;5.60;;;;;;;2.55;83.75;98702.65;213852;1312;22615;-75
2022/12/28 21:37:33;;;;;;;16.00;6.50;;;;;;;2.46;83.82;98702.50;213633;1307;22474;-76
2022/12/28 21:42:35;;;;;;;15.30;6.00;;;;;;;2.33;84.03;98702.48;213721;1312;23778;-75
2022/12/28 21:47:37;;;;;;;17.70;7.10;;;;;;;2.22;84.29;98702.38;213665;1312;24783;-75
2022/12/28 21:52:39;;;;;;;17.00;7.20;;;;;;;2.16;84.37;98704.52;213751;1312;24287;-75
2022/12/28 21:57:41;;;;;;;20.60;7.80;;;;;;;2.11;84.54;98701.66;214024;1311;22483;-75
2022/12/28 22:13:28;;;;;;;17.40;7.20;;;;;;;1.94;84.84;98702.41;213902;1303;23238;-75
2022/12/28 22:18:30;;;;;;;14.90;7.10;;;;;;;1.88;84.90;98701.96;213802;1312;22955;-75
2022/12/28 22:23:53;;;;;;;18.60;7.80;;;;;;;1.81;84.99;98696.71;213862;1307;22505;-75
2022/12/28 22:28:54;;;;;;;21.40;7.90;;;;;;;1.79;85.15;98695.07;213717;1312;25425;-77
2022/12/28 22:33:57;;;;;;;16.60;7.50;;;;;;;1.74;85.26;98700.73;213787;1312;25396;-74
2022/12/28 22:39:07;;;;;;;20.90;8.40;;;;;;;1.72;85.38;98711.23;213855;1312;22456;-75
2022/12/28 22:44:09;;;;;;;19.70;7.20;;;;;;;1.72;85.56;98710.83;213854;1311;83607;-75
2022/12/28 22:49:11;;;;;;;20.80;7.70;;;;;;;1.76;85.64;98715.30;213395;1312;24446;-76
2022/12/28 22:54:13;;;;;;;17.00;7.40;;;;;;;1.82;85.60;98713.98;213771;1312;24295;-75
2022/12/28 22:59:14;;;;;;;18.30;6.70;;;;;;;1.83;85.52;98703.50;213796;1312;22512;-75
2022/12/28 23:04:16;;;;;;;16.60;6.90;;;;;;;1.82;85.54;98699.83;213859;1298;22483;-75
2022/12/28 23:09:18;;;;;;;14.30;6.90;;;;;;;1.78;85.48;98706.09;214053;1297;22674;-76
2022/12/28 23:30:37;;;;;;;10.60;4.60;;;;;;;1.75;85.64;98700.86;213569;1312;23243;-75
2022/12/28 23:35:38;;;;;;;12.10;5.70;;;;;;;1.78;85.57;98690.61;213871;1312;22517;-76
2022/12/28 23:40:41;;;;;;;9.60;4.80;;;;;;;1.78;85.46;98695.32;213812;1312;22522;-75
2022/12/28 23:45:43;;;;;;;12.90;5.20;;;;;;;1.77;85.44;98693.14;213846;1312;22479;-76
2022/12/28 23:50:44;;;;;;;9.90;4.60;;;;;;;1.76;85.51;98682.74;213821;1307;22738;-76
2022/12/28 23:55:46;;;;;;;10.10;4.70;;;;;;;1.78;85.72;98684.92;213615;1312;22492;-75
